createdAt,value
2022-09-25T00:00:43.999Z,19.6
2022-09-25T00:03:01.257Z,19.6
2022-09-25T00:05:18.249Z,19.8
2022-09-25T00:07:34.895Z,19.9
2022-09-25T00:09:51.889Z,19.4
2022-09-25T00:12:08.808Z,19.5
2022-09-25T00:14:25.831Z,19.5
2022-09-25T00:16:41.251Z,19.5
2022-09-25T00:18:58.233Z,19.9
2022-09-25T00:21:15.006Z,19.4
2022-09-25T00:23:32.187Z,19.4
2022-09-25T00:25:48.916Z,19.4
2022-09-25T00:28:06.102Z,19.4
2022-09-25T00:30:22.924Z,19.4
2022-09-25T00:32:38.270Z,19.3
2022-09-25T00:34:55.029Z,19.9
2022-09-25T00:37:10.787Z,19.4
2022-09-25T00:39:27.589Z,19.9
2022-09-25T00:41:44.511Z,19.4
2022-09-25T00:44:01.791Z,19.5
2022-09-25T00:46:18.649Z,19.5
2022-09-25T00:48:35.474Z,19.3
2022-09-25T00:50:52.647Z,19.3
2022-09-25T00:53:09.260Z,19.4
2022-09-25T00:55:26.370Z,19.1
2022-09-25T00:57:43.320Z,19.4
2022-09-25T01:00:00.270Z,19.4
2022-09-25T01:02:17.167Z,19.3
2022-09-25T01:04:34.448Z,19.1
2022-09-25T01:06:51.044Z,19.3
2022-09-25T01:09:08.181Z,19.3
2022-09-25T01:11:25.010Z,19.2
2022-09-25T01:13:42.122Z,19.3
2022-09-25T01:15:58.919Z,19.3
2022-09-25T01:18:15.862Z,19.2
2022-09-25T01:20:31.527Z,19.3
2022-09-25T01:22:48.182Z,19.8
2022-09-25T01:25:05.262Z,19.2
2022-09-25T01:27:20.690Z,19.4
2022-09-25T01:29:37.399Z,19.6
2022-09-25T01:31:54.216Z,19.1
2022-09-25T01:34:11.315Z,19.3
2022-09-25T01:36:28.441Z,19.2
2022-09-25T01:38:44.919Z,19.5
2022-09-25T01:41:02.006Z,19
2022-09-25T01:43:18.979Z,18.9
2022-09-25T01:45:36.152Z,19.1
2022-09-25T01:47:52.679Z,18.9
2022-09-25T01:50:09.921Z,19.1
2022-09-25T01:52:26.703Z,19.1
2022-09-25T01:54:43.707Z,19.1
2022-09-25T01:57:00.699Z,19.1
2022-09-25T01:59:16.512Z,19
2022-09-25T02:01:32.818Z,19.6
2022-09-25T02:03:49.607Z,19.3
2022-09-25T02:06:06.598Z,19.1
2022-09-25T02:08:23.303Z,19.1
2022-09-25T02:10:40.605Z,18.9
2022-09-25T02:12:57.251Z,19
2022-09-25T02:15:14.298Z,18.9
2022-09-25T02:17:30.902Z,18.9
2022-09-25T02:19:47.897Z,19.1
2022-09-25T02:22:04.943Z,19.2
2022-09-25T02:24:20.223Z,19.4
2022-09-25T02:26:36.200Z,19.5
2022-09-25T02:28:52.513Z,19.6
2022-09-25T02:31:09.422Z,19.3
2022-09-25T02:33:24.978Z,19.3
2022-09-25T02:35:41.603Z,19.4
2022-09-25T02:37:57.707Z,19.2
2022-09-25T02:40:14.279Z,19
2022-09-25T02:42:30.726Z,19.4
2022-09-25T02:44:47.327Z,19.1
2022-09-25T02:47:04.186Z,19
2022-09-25T02:49:20.542Z,18.9
2022-09-25T02:51:37.247Z,19.1
2022-09-25T02:53:53.981Z,18.9
2022-09-25T02:56:10.925Z,18.9
2022-09-25T02:58:27.541Z,18.8
2022-09-25T03:04:43.473Z,19.2
2022-09-25T03:07:00.251Z,19.2
2022-09-25T03:09:16.838Z,19
2022-09-25T03:12:42.561Z,19.3
2022-09-25T03:14:59.400Z,19.1
2022-09-25T03:17:16.163Z,19.1
2022-09-25T03:19:33.164Z,19.1
2022-09-25T03:21:49.820Z,19.1
2022-09-25T03:24:06.629Z,19.1
2022-09-25T03:26:23.468Z,18.9
2022-09-25T03:28:40.273Z,19.1
2022-09-25T03:30:57.111Z,18.9
2022-09-25T03:33:12.494Z,18.9
2022-09-25T03:35:27.705Z,19.7
2022-09-25T03:37:44.353Z,19.3
2022-09-25T03:40:00.830Z,19.1
2022-09-25T03:42:16.287Z,19.1
2022-09-25T03:44:32.810Z,19.4
2022-09-25T03:46:48.315Z,19.1
2022-09-25T03:49:03.960Z,19.4
2022-09-25T03:51:20.422Z,19.5
2022-09-25T03:53:37.099Z,19.2
2022-09-25T03:55:53.836Z,18.9
2022-09-25T03:58:10.516Z,18.9
2022-09-25T04:00:27.308Z,18.9
2022-09-25T04:02:44.319Z,18.9
2022-09-25T04:04:59.687Z,18.9
2022-09-25T04:07:15.281Z,19.3
2022-09-25T04:09:31.081Z,19.4
2022-09-25T04:11:47.199Z,19.1
2022-09-25T04:14:03.044Z,19.4
2022-09-25T04:16:19.548Z,19.2
2022-09-25T04:18:36.324Z,19
2022-09-25T04:20:52.723Z,19.1
2022-09-25T04:23:09.519Z,18.9
2022-09-25T04:25:26.253Z,19
2022-09-25T04:27:42.826Z,18.9
2022-09-25T04:29:58.283Z,18.8
2022-09-25T04:32:13.700Z,19.4
2022-09-25T04:34:30.184Z,19.2
2022-09-25T04:36:46.758Z,19.1
2022-09-25T04:39:03.364Z,18.9
2022-09-25T04:41:20.287Z,18.8
2022-09-25T04:43:35.396Z,18.9
2022-09-25T04:45:52.116Z,19.2
2022-09-25T04:48:08.480Z,19
2022-09-25T04:50:24.016Z,18.8
2022-09-25T04:52:40.302Z,19.2
2022-09-25T04:54:56.006Z,19.1
2022-09-25T04:57:11.735Z,19.2
2022-09-25T04:59:45.369Z,19.2
2022-09-25T05:02:01.262Z,19.1
2022-09-25T05:04:17.638Z,19.4
2022-09-25T05:06:34.264Z,19
2022-09-25T05:08:50.735Z,19
2022-09-25T05:11:07.589Z,18.9
2022-09-25T05:13:23.954Z,18.9
2022-09-25T05:15:40.545Z,19
2022-09-25T05:17:57.241Z,18.9
2022-09-25T05:20:13.935Z,18.8
2022-09-25T05:22:30.612Z,18.9
2022-09-25T05:24:46.069Z,18.9
2022-09-25T05:27:02.487Z,19.4
2022-09-25T05:29:19.311Z,19.2
2022-09-25T05:31:35.545Z,19.2
2022-09-25T05:33:50.867Z,19.1
2022-09-25T05:36:07.274Z,19.4
2022-09-25T05:38:23.877Z,19.2
2022-09-25T05:40:40.833Z,19.1
2022-09-25T05:42:57.695Z,19.2
2022-09-25T05:45:14.541Z,19
2022-09-25T05:47:31.334Z,19.1
2022-09-25T05:49:48.277Z,19.3
2022-09-25T05:52:05.172Z,19.1
2022-09-25T05:54:21.980Z,19.1
2022-09-25T05:56:39.004Z,18.9
2022-09-25T06:01:12.712Z,18.4
2022-09-25T06:03:29.398Z,18.3
2022-09-25T06:05:46.310Z,18.3
2022-09-25T06:08:03.176Z,18.4
2022-09-25T06:10:18.432Z,18.4
2022-09-25T06:12:35.157Z,18.8
2022-09-25T06:14:52.240Z,18.8
2022-09-25T06:17:08.842Z,18.4
2022-09-25T06:19:25.749Z,18.4
2022-09-25T06:21:42.446Z,18.3
2022-09-25T06:23:59.266Z,18.3
2022-09-25T06:26:16.006Z,18.4
2022-09-25T06:28:33.004Z,18.2
2022-09-25T06:30:49.606Z,18.6
2022-09-25T06:35:23.045Z,18.6
2022-09-25T06:39:56.198Z,18.8
2022-09-25T06:42:12.808Z,18.9
2022-09-25T06:44:29.405Z,19.2
2022-09-25T06:46:45.865Z,19.4
2022-09-25T06:49:02.297Z,19.3
2022-09-25T06:51:18.712Z,19.4
2022-09-25T06:53:35.022Z,19.4
2022-09-25T06:55:51.320Z,19.6
2022-09-25T06:58:07.655Z,19.7
2022-09-25T07:00:24.263Z,19.7
2022-09-25T07:02:40.351Z,19.9
2022-09-25T07:04:56.717Z,20
2022-09-25T07:07:13.128Z,20.1
2022-09-25T07:09:28.132Z,20.2
2022-09-25T07:11:43.009Z,20.3
2022-09-25T07:13:59.594Z,20.4
2022-09-25T07:16:16.077Z,20.4
2022-09-25T07:18:32.329Z,20.5
2022-09-25T07:20:48.629Z,20.7
2022-09-25T07:23:04.932Z,20.7
2022-09-25T07:25:20.651Z,20.6
2022-09-25T07:27:37.282Z,20.9
2022-09-25T07:29:52.361Z,20.9
2022-09-25T07:32:08.404Z,21.6
2022-09-25T07:34:24.528Z,21.2
2022-09-25T07:36:40.492Z,21.3
2022-09-25T07:38:56.484Z,21.6
2022-09-25T07:41:12.421Z,21.8
2022-09-25T07:43:28.111Z,21.8
2022-09-25T07:46:01.484Z,21.7
2022-09-25T07:48:17.163Z,21.9
2022-09-25T07:50:32.849Z,22.1
2022-09-25T07:52:48.471Z,21.9
2022-09-25T07:55:03.420Z,22
2022-09-25T07:57:18.142Z,22.3
2022-09-25T07:59:32.966Z,22.3
2022-09-25T08:01:52.820Z,22.3
2022-09-25T08:04:02.692Z,22.4
2022-09-25T08:06:17.587Z,22.4
2022-09-25T08:08:32.506Z,22.4
2022-09-25T08:10:47.524Z,22.6
2022-09-25T08:13:02.272Z,22.7
2022-09-25T08:15:17.214Z,22.6
2022-09-25T08:17:31.950Z,22.8
2022-09-25T08:19:46.904Z,22.8
2022-09-25T08:22:01.725Z,22.8
2022-09-25T08:24:16.846Z,23.1
2022-09-25T08:26:31.644Z,23.1
2022-09-25T08:28:46.509Z,23.3
2022-09-25T08:31:01.484Z,23.3
2022-09-25T08:33:16.312Z,23.5
2022-09-25T08:35:44.588Z,23.5
2022-09-25T08:37:59.390Z,23.6
2022-09-25T08:40:14.300Z,23.6
2022-09-25T08:42:29.242Z,23.6
2022-09-25T08:44:57.173Z,23.8
2022-09-25T08:47:14.793Z,23.7
2022-09-25T08:49:26.848Z,23.7
2022-09-25T08:51:41.673Z,23.8
2022-09-25T08:53:56.846Z,23.8
2022-09-25T08:56:11.740Z,23.9
2022-09-25T08:58:26.969Z,23.9
2022-09-25T09:02:25.438Z,23.8
2022-09-25T09:04:40.534Z,24
2022-09-25T09:07:21.888Z,23.9
2022-09-25T09:09:28.192Z,24.1
2022-09-25T09:11:43.284Z,24.1
2022-09-25T09:13:58.470Z,23.9
2022-09-25T09:16:13.603Z,24
2022-09-25T09:18:28.520Z,24
2022-09-25T09:20:43.634Z,24.1
2022-09-25T09:22:58.906Z,24.1
2022-09-25T09:25:13.957Z,24.3
2022-09-25T09:27:28.767Z,23.9
2022-09-25T09:29:44.397Z,24.3
2022-09-25T09:31:59.615Z,24.1
2022-09-25T09:34:14.774Z,24.3
2022-09-25T09:36:53.560Z,24.1
2022-09-25T09:39:08.788Z,24
2022-09-25T09:41:24.054Z,24.1
2022-09-25T09:43:39.489Z,24.1
2022-09-25T09:45:56.144Z,23.9
2022-09-25T09:48:11.474Z,23.9
2022-09-25T09:50:26.809Z,23.8
2022-09-25T09:52:42.557Z,23.9
2022-09-25T09:54:57.847Z,24.3
2022-09-25T09:57:13.184Z,24.2
2022-09-25T09:59:28.532Z,24.1
2022-09-25T10:01:54.493Z,23.8
2022-09-25T10:04:09.850Z,23.9
2022-09-25T10:06:25.369Z,23.9
2022-09-25T10:08:41.005Z,23.9
2022-09-25T10:10:56.413Z,23.9
2022-09-25T10:13:11.815Z,24
2022-09-25T10:15:27.493Z,23.8
2022-09-25T10:17:42.834Z,23.9
2022-09-25T10:19:58.158Z,23.9
2022-09-25T10:22:16.596Z,23.8
2022-09-25T10:24:29.249Z,23.9
2022-09-25T10:26:44.778Z,23.9
2022-09-25T10:29:00.305Z,23.8
2022-09-25T10:31:15.974Z,23.8
2022-09-25T10:33:31.414Z,23.7
2022-09-25T10:35:46.872Z,23.7
2022-09-25T10:38:02.624Z,23.6
2022-09-25T10:40:34.210Z,23.8
2022-09-25T10:42:49.597Z,23.7
2022-09-25T10:45:05.136Z,23.8
2022-09-25T10:47:20.625Z,23.6
2022-09-25T10:49:36.263Z,23.6
2022-09-25T10:51:51.786Z,23.7
2022-09-25T10:54:07.328Z,23.6
2022-09-25T10:56:22.926Z,23.7
2022-09-25T10:58:37.837Z,23.6
2022-09-25T11:00:53.874Z,23.6
2022-09-25T11:03:14.143Z,23.6
2022-09-25T11:05:25.028Z,23.7
2022-09-25T11:07:40.399Z,23.5
2022-09-25T11:09:59.848Z,23.4
2022-09-25T11:12:11.501Z,23.4
2022-09-25T11:14:27.146Z,23.4
2022-09-25T11:16:42.625Z,23.6
2022-09-25T11:19:01.235Z,23.4
2022-09-25T11:21:13.653Z,23.6
2022-09-25T11:23:29.102Z,23.6
2022-09-25T11:25:44.609Z,23.4
2022-09-25T11:28:00.208Z,23.4
2022-09-25T11:30:15.652Z,23.4
2022-09-25T11:32:31.235Z,23.3
2022-09-25T11:34:46.733Z,23.4
2022-09-25T11:37:02.293Z,23.4
2022-09-25T11:39:17.815Z,23.3
2022-09-25T11:41:33.546Z,23.3
2022-09-25T11:43:48.841Z,23.5
2022-09-25T11:46:04.405Z,23.3
2022-09-25T11:48:20.154Z,23.4
2022-09-25T11:50:35.367Z,23.5
2022-09-25T11:52:51.097Z,23.3
2022-09-25T11:55:13.445Z,23.3
2022-09-25T11:57:33.686Z,23.3
2022-09-25T11:59:44.645Z,23.1
2022-09-25T12:02:00.103Z,23.2
2022-09-25T12:04:15.665Z,23.2
2022-09-25T12:06:31.058Z,23.3
2022-09-25T12:08:46.729Z,23.2
2022-09-25T12:11:02.223Z,23.1
2022-09-25T12:13:17.681Z,23.3
2022-09-25T12:15:33.250Z,23.2
2022-09-25T12:17:48.770Z,23.3
2022-09-25T12:20:04.372Z,23.2
2022-09-25T12:22:19.844Z,23.1
2022-09-25T12:24:35.377Z,23.1
2022-09-25T12:26:50.899Z,23.1
2022-09-25T12:29:06.353Z,23.1
2022-09-25T12:31:22.024Z,22.9
2022-09-25T12:33:37.623Z,23.3
2022-09-25T12:35:53.066Z,23.3
2022-09-25T12:38:08.506Z,23.1
2022-09-25T12:40:24.091Z,23
2022-09-25T12:42:39.648Z,23.2
2022-09-25T12:44:55.055Z,23.3
2022-09-25T12:47:10.680Z,23.1
2022-09-25T12:49:26.247Z,23.2
2022-09-25T12:51:41.900Z,23.1
2022-09-25T12:53:57.446Z,23.1
2022-09-25T12:56:13.398Z,23.1
2022-09-25T12:58:28.815Z,23
2022-09-25T13:00:44.314Z,23.1
2022-09-25T13:03:00.090Z,23.1
2022-09-25T13:05:19.433Z,23
2022-09-25T13:07:31.254Z,22.9
2022-09-25T13:09:46.900Z,22.9
2022-09-25T13:12:02.589Z,23.1
2022-09-25T13:14:18.028Z,22.9
2022-09-25T13:16:33.825Z,22.9
2022-09-25T13:18:49.591Z,23
2022-09-25T13:21:04.822Z,23.1
2022-09-25T13:23:20.642Z,23.2
2022-09-25T13:25:36.061Z,23.1
2022-09-25T13:27:52.045Z,23
2022-09-25T13:30:07.384Z,22.9
2022-09-25T13:32:23.051Z,23.1
2022-09-25T13:34:38.565Z,23
2022-09-25T13:36:54.303Z,22.9
2022-09-25T13:39:09.845Z,23.2
2022-09-25T13:41:25.723Z,22.9
2022-09-25T13:43:41.263Z,22.8
2022-09-25T13:45:56.654Z,22.9
2022-09-25T13:48:12.224Z,22.8
2022-09-25T13:50:27.780Z,23.1
2022-09-25T13:52:43.583Z,22.8
2022-09-25T13:54:59.024Z,22.9
2022-09-25T13:57:14.924Z,23
2022-09-25T13:59:30.463Z,22.9
2022-09-25T14:01:46.135Z,22.9
2022-09-25T14:04:01.867Z,22.9
2022-09-25T14:06:17.018Z,23.1
2022-09-25T14:08:32.750Z,22.8
2022-09-25T14:10:48.270Z,22.7
2022-09-25T14:13:07.089Z,22.8
2022-09-25T14:15:19.506Z,22.8
2022-09-25T14:17:35.278Z,22.8
2022-09-25T14:19:50.748Z,22.8
2022-09-25T14:22:06.621Z,22.8
2022-09-25T14:24:22.102Z,22.8
2022-09-25T14:26:37.833Z,22.8
2022-09-25T14:28:53.304Z,22.8
2022-09-25T14:31:08.935Z,22.6
2022-09-25T14:33:37.872Z,22.9
2022-09-25T14:35:53.368Z,22.9
2022-09-25T14:38:09.749Z,22.7
2022-09-25T14:40:25.106Z,22.4
2022-09-25T14:42:40.305Z,23.1
2022-09-25T14:44:56.700Z,22.8
2022-09-25T14:47:12.936Z,22.4
2022-09-25T14:49:28.241Z,22.3
2022-09-25T14:51:43.103Z,22.9
2022-09-25T14:53:59.386Z,22.9
2022-09-25T14:56:15.724Z,22.2
2022-09-25T14:58:32.103Z,22.4
2022-09-25T15:02:25.431Z,21.9
2022-09-25T15:04:40.522Z,22.8
2022-09-25T15:06:55.509Z,22.9
2022-09-25T15:09:11.856Z,22.9
2022-09-25T15:11:28.342Z,22.1
2022-09-25T15:13:44.674Z,22.4
2022-09-25T15:16:01.031Z,22.6
2022-09-25T15:18:17.312Z,22.8
2022-09-25T15:20:32.239Z,22.7
2022-09-25T15:22:47.241Z,22.6
2022-09-25T15:25:03.460Z,22.9
2022-09-25T15:27:18.691Z,22.4
2022-09-25T15:29:34.831Z,22.8
2022-09-25T15:31:49.941Z,22.5
2022-09-25T15:34:06.193Z,22.7
2022-09-25T15:36:21.350Z,22.6
2022-09-25T15:38:37.591Z,22.8
2022-09-25T15:40:54.048Z,22.3
2022-09-25T15:43:10.298Z,22.8
2022-09-25T15:45:25.403Z,22.6
2022-09-25T15:47:41.545Z,22.6
2022-09-25T15:49:58.160Z,22.3
2022-09-25T15:52:14.149Z,22.5
2022-09-25T15:54:30.546Z,22.7
2022-09-25T15:56:46.595Z,22.4
2022-09-25T15:59:02.937Z,22.6
2022-09-25T16:01:19.221Z,22.7
2022-09-25T16:03:35.237Z,22.8
2022-09-25T16:05:51.701Z,22.8
2022-09-25T16:08:07.724Z,22.6
2022-09-25T16:10:23.723Z,22.7
2022-09-25T16:12:38.735Z,22.8
2022-09-25T16:14:53.781Z,22.5
2022-09-25T16:17:09.991Z,22.6
2022-09-25T16:19:26.367Z,22.4
2022-09-25T16:21:42.785Z,22.6
2022-09-25T16:23:58.983Z,22.6
2022-09-25T16:26:15.304Z,22.6
2022-09-25T16:28:31.479Z,22.5
2022-09-25T16:30:47.596Z,22.6
2022-09-25T16:33:03.774Z,22.4
2022-09-25T16:35:20.158Z,22.6
2022-09-25T16:37:47.793Z,22.4
2022-09-25T16:40:02.791Z,22.4
2022-09-25T16:42:22.091Z,22.6
2022-09-25T16:44:35.976Z,22.3
2022-09-25T16:46:52.899Z,22.3
2022-09-25T16:49:09.139Z,22.3
2022-09-25T16:51:25.802Z,22.3
2022-09-25T16:53:40.791Z,22.2
2022-09-25T16:55:55.809Z,22.4
2022-09-25T16:58:12.706Z,22.4
2022-09-25T17:00:27.853Z,22.2
2022-09-25T17:02:44.749Z,22.5
2022-09-25T17:04:59.856Z,22.3
2022-09-25T17:07:16.747Z,22.3
2022-09-25T17:09:33.555Z,22.1
2022-09-25T17:11:48.723Z,22.2
2022-09-25T17:14:05.307Z,22.3
2022-09-25T17:16:20.515Z,22.1
2022-09-25T17:18:37.290Z,22.3
2022-09-25T17:20:54.370Z,22.1
2022-09-25T17:23:09.352Z,22
2022-09-25T17:25:26.088Z,22.4
2022-09-25T17:27:41.442Z,22.1
2022-09-25T17:29:56.479Z,22.2
2022-09-25T17:32:13.248Z,22.4
2022-09-25T17:34:30.046Z,22.1
2022-09-25T17:36:48.242Z,22.1
2022-09-25T17:39:04.910Z,22.1
2022-09-25T17:41:21.617Z,22
2022-09-25T17:43:38.208Z,22.1
2022-09-25T17:45:54.643Z,22.1
2022-09-25T17:48:11.137Z,22.2
2022-09-25T17:50:27.734Z,21.9
2022-09-25T17:52:44.366Z,22.2
2022-09-25T17:55:00.875Z,21.9
2022-09-25T17:57:17.694Z,22.1
2022-09-25T17:59:34.187Z,22
2022-09-25T18:01:50.754Z,22
2022-09-25T18:04:07.700Z,21.9
2022-09-25T18:06:24.313Z,21.9
2022-09-25T18:08:41.189Z,21.9
2022-09-25T18:10:57.533Z,22
2022-09-25T18:13:14.406Z,21.8
2022-09-25T18:15:30.812Z,22.1
2022-09-25T18:17:47.612Z,21.9
2022-09-25T18:20:04.223Z,21.8
2022-09-25T18:22:21.003Z,21.8
2022-09-25T18:24:37.663Z,21.7
2022-09-25T18:26:54.144Z,21.9
2022-09-25T18:29:11.122Z,21.9
2022-09-25T18:31:27.724Z,21.8
2022-09-25T18:33:47.370Z,21.9
2022-09-25T18:36:00.936Z,21.8
2022-09-25T18:38:17.846Z,21.8
2022-09-25T18:40:34.543Z,21.9
2022-09-25T18:42:51.129Z,21.9
2022-09-25T18:45:07.884Z,21.9
2022-09-25T18:47:24.511Z,22
2022-09-25T18:49:41.246Z,21.9
2022-09-25T18:51:58.134Z,21.7
2022-09-25T18:54:14.671Z,21.6
2022-09-25T18:56:31.371Z,22
2022-09-25T18:58:48.171Z,21.9
2022-09-25T19:01:05.056Z,21.9
2022-09-25T19:03:21.669Z,21.9
2022-09-25T19:05:38.349Z,21.9
2022-09-25T19:07:55.149Z,21.8
2022-09-25T19:10:11.826Z,21.8
2022-09-25T19:12:28.430Z,21.8
2022-09-25T19:14:45.299Z,21.9
2022-09-25T19:17:01.908Z,21.8
2022-09-25T19:19:18.836Z,21.8
2022-09-25T19:21:35.366Z,21.6
2022-09-25T19:23:52.279Z,21.8
2022-09-25T19:26:07.441Z,21.6
2022-09-25T19:28:22.701Z,21.8
2022-09-25T19:30:39.343Z,21.8
2022-09-25T19:32:56.289Z,21.6
2022-09-25T19:35:13.065Z,21.6
2022-09-25T19:37:30.031Z,21.6
2022-09-25T19:39:46.716Z,21.5
2022-09-25T19:42:03.338Z,21.6
2022-09-25T19:44:20.288Z,21.6
2022-09-25T19:46:37.118Z,21.5
2022-09-25T19:48:53.888Z,21.6
2022-09-25T19:51:10.543Z,21.5
2022-09-25T19:53:27.457Z,21.6
2022-09-25T19:55:44.144Z,21.6
2022-09-25T19:58:00.701Z,21.5
2022-09-25T20:00:17.559Z,21.6
2022-09-25T20:02:34.245Z,21.6
2022-09-25T20:04:51.307Z,21.6
2022-09-25T20:07:07.861Z,21.6
2022-09-25T20:09:24.763Z,21.7
2022-09-25T20:11:40.062Z,21.6
2022-09-25T20:13:56.621Z,21.7
2022-09-25T20:16:13.473Z,21.3
2022-09-25T20:20:47.431Z,21.3
2022-09-25T20:23:04.406Z,21.3
2022-09-25T20:25:21.078Z,21.4
2022-09-25T20:27:37.768Z,21.6
2022-09-25T20:29:54.675Z,21.4
2022-09-25T20:32:11.352Z,21.4
2022-09-25T20:34:28.289Z,21.4
2022-09-25T20:36:45.028Z,21.4
2022-09-25T20:39:01.826Z,21.3
2022-09-25T20:41:18.465Z,21.3
2022-09-25T20:43:35.129Z,21.3
2022-09-25T20:45:52.071Z,21.4
2022-09-25T20:48:08.741Z,21.3
2022-09-25T20:50:25.713Z,21.4
2022-09-25T20:52:42.324Z,21.3
2022-09-25T20:54:59.250Z,21.2
2022-09-25T20:57:15.932Z,21.1
2022-09-25T20:59:32.829Z,21.2
2022-09-25T21:02:24.913Z,20.9
2022-09-25T21:04:41.532Z,21.3
2022-09-25T21:09:15.064Z,21.2
2022-09-25T21:11:31.798Z,21.2
2022-09-25T21:13:48.786Z,20.9
2022-09-25T21:18:21.857Z,21
2022-09-25T21:22:55.280Z,20.9
2022-09-25T21:25:11.972Z,20.9
2022-09-25T21:27:28.717Z,21
2022-09-25T21:29:45.348Z,20.9
2022-09-25T21:32:02.038Z,21
2022-09-25T21:34:18.840Z,20.9
2022-09-25T21:36:34.958Z,20.8
2022-09-25T21:38:52.162Z,20.9
2022-09-25T21:41:08.943Z,20.8
2022-09-25T21:43:25.701Z,20.9
2022-09-25T21:45:42.427Z,20.9
2022-09-25T21:47:59.102Z,21
2022-09-25T21:50:15.735Z,20.8
2022-09-25T21:52:32.442Z,20.9
2022-09-25T21:54:49.206Z,20.9
2022-09-25T21:57:05.908Z,20.8
2022-09-25T21:59:22.727Z,20.8
2022-09-25T22:01:39.566Z,21
2022-09-25T22:03:55.904Z,20.9
2022-09-25T22:06:12.742Z,20.9
2022-09-25T22:08:27.800Z,20.8
2022-09-25T22:10:44.478Z,20.9
2022-09-25T22:13:01.296Z,20.9
2022-09-25T22:15:17.989Z,20.8
2022-09-25T22:17:34.670Z,20.8
2022-09-25T22:19:51.463Z,20.7
2022-09-25T22:22:06.546Z,20.9
2022-09-25T22:24:23.122Z,20.9
2022-09-25T22:26:38.539Z,20.8
2022-09-25T22:28:55.312Z,20.9
2022-09-25T22:31:12.052Z,20.9
2022-09-25T22:33:28.788Z,20.6
2022-09-25T22:35:45.561Z,20.5
2022-09-25T22:38:00.871Z,20.5
2022-09-25T22:40:16.275Z,21.1
2022-09-25T22:42:32.800Z,20.9
2022-09-25T22:44:50.005Z,20.7
2022-09-25T22:47:04.924Z,20.5
2022-09-25T22:49:20.481Z,21
2022-09-25T22:51:37.091Z,20.8
2022-09-25T22:53:54.033Z,20.4
2022-09-25T22:56:10.813Z,20.3
2022-09-25T22:58:27.588Z,20.5
2022-09-25T23:00:44.316Z,20.7
2022-09-25T23:03:00.893Z,20.5
2022-09-25T23:05:17.684Z,20.6
2022-09-25T23:07:34.373Z,20.7
2022-09-25T23:09:51.146Z,20.3
2022-09-25T23:12:20.990Z,20.6
2022-09-25T23:14:37.731Z,20.6
2022-09-25T23:16:54.713Z,20.4
2022-09-25T23:19:11.282Z,20.5
2022-09-25T23:21:27.936Z,20.6
2022-09-25T23:23:44.568Z,20.7
2022-09-25T23:26:01.373Z,20.5
2022-09-25T23:28:18.075Z,20.4
2022-09-25T23:30:34.842Z,20.5
2022-09-25T23:32:51.641Z,20.6
2022-09-25T23:35:08.232Z,20.6
2022-09-25T23:37:23.416Z,20.6
2022-09-25T23:39:40.190Z,20.8
2022-09-25T23:41:56.973Z,20.4
2022-09-25T23:44:13.757Z,20.5
2022-09-25T23:46:28.952Z,20.4
2022-09-25T23:48:45.613Z,20.9
2022-09-25T23:51:02.401Z,20.6
2022-09-25T23:53:19.158Z,20.4
2022-09-25T23:55:36.212Z,20.5
2022-09-25T23:57:51.221Z,20.7
